createdAt,value
2018-09-09T00:02:01.189Z,14.00
2018-09-09T00:04:30.416Z,14.10
2018-09-09T00:06:59.653Z,14.20
2018-09-09T00:09:34.293Z,14.40
2018-09-09T00:17:01.535Z,13.90
2018-09-09T00:24:28.931Z,13.70
2018-09-09T00:29:27.205Z,13.70
2018-09-09T00:34:25.465Z,14.40
2018-09-09T00:39:23.629Z,15.70
2018-09-09T00:41:52.873Z,14.30
2018-09-09T00:46:51.204Z,14.50
2018-09-09T00:49:25.834Z,14.50
2018-09-09T00:52:00.432Z,14.50
2018-09-09T00:54:29.698Z,13.90
2018-09-09T00:56:58.907Z,14.20
2018-09-09T01:01:57.266Z,13.80
2018-09-09T01:12:04.598Z,14.20
2018-09-09T01:17:03.810Z,14.40
2018-09-09T01:19:33.013Z,13.90
2018-09-09T01:22:02.265Z,14.10
2018-09-09T01:24:31.563Z,13.60
2018-09-09T01:27:00.882Z,14.00
2018-09-09T01:29:30.097Z,14.10
2018-09-09T01:36:57.263Z,14.20
2018-09-09T01:39:26.511Z,13.60
2018-09-09T01:41:55.734Z,13.90
2018-09-09T01:44:24.964Z,14.30
2018-09-09T01:49:23.338Z,13.90
2018-09-09T02:01:49.084Z,14.00
2018-09-09T02:04:18.302Z,14.10
2018-09-09T02:09:16.517Z,14.00
2018-09-09T02:14:14.872Z,14.20
2018-09-09T02:16:44.073Z,13.60
2018-09-09T02:19:13.342Z,13.30
2018-09-09T02:21:42.580Z,13.40
2018-09-09T02:24:11.809Z,14.10
2018-09-09T02:26:41.034Z,14.00
2018-09-09T02:29:10.294Z,13.90
2018-09-09T02:36:37.563Z,13.80
2018-09-09T02:39:10.053Z,13.90
2018-09-09T02:41:39.908Z,13.70
2018-09-09T02:44:09.337Z,13.70
2018-09-09T02:46:38.556Z,14.00
2018-09-09T02:51:36.769Z,14.10
2018-09-09T02:59:03.987Z,13.60
2018-09-09T03:01:33.209Z,13.50
2018-09-09T03:09:00.414Z,13.70
2018-09-09T03:11:29.629Z,13.80
2018-09-09T03:13:58.822Z,13.20
2018-09-09T03:18:56.999Z,13.90
2018-09-09T03:21:26.171Z,13.30
2018-09-09T03:33:52.160Z,13.40
2018-09-09T03:36:21.406Z,13.80
2018-09-09T03:38:50.735Z,13.30
2018-09-09T03:41:20.065Z,13.40
2018-09-09T03:43:49.361Z,13.70
2018-09-09T03:46:18.603Z,13.50
2018-09-09T03:48:48.985Z,13.80
2018-09-09T03:51:18.345Z,13.40
2018-09-09T03:53:47.636Z,13.80
2018-09-09T03:56:16.828Z,13.60
2018-09-09T04:01:14.948Z,13.40
2018-09-09T04:03:44.207Z,13.70
2018-09-09T04:06:13.405Z,13.60
2018-09-09T04:08:42.638Z,13.90
2018-09-09T04:13:42.732Z,13.90
2018-09-09T04:16:13.125Z,13.50
2018-09-09T04:18:43.594Z,13.70
2018-09-09T04:21:12.782Z,14.00
2018-09-09T04:23:41.964Z,13.90
2018-09-09T04:26:11.213Z,13.60
2018-09-09T04:28:40.421Z,13.40
2018-09-09T04:31:09.697Z,13.40
2018-09-09T04:33:38.941Z,14.00
2018-09-09T04:36:08.340Z,13.50
2018-09-09T04:38:37.606Z,13.50
2018-09-09T04:41:06.822Z,13.90
2018-09-09T04:43:36.280Z,14.10
2018-09-09T04:46:05.545Z,13.60
2018-09-09T04:48:34.789Z,14.00
2018-09-09T04:56:02.056Z,14.00
2018-09-09T04:58:31.251Z,13.40
2018-09-09T05:01:00.530Z,14.00
2018-09-09T05:08:27.723Z,14.30
2018-09-09T05:10:56.975Z,14.10
2018-09-09T05:13:26.196Z,14.20
2018-09-09T05:15:55.546Z,14.10
2018-09-09T05:18:24.746Z,13.70
2018-09-09T05:20:53.989Z,14.30
2018-09-09T05:23:23.207Z,14.00
2018-09-09T05:35:48.625Z,13.90
2018-09-09T05:38:17.820Z,14.10
2018-09-09T05:40:47.032Z,14.50
2018-09-09T05:43:16.253Z,14.20
2018-09-09T05:48:14.456Z,14.70
2018-09-09T05:50:44.149Z,14.30
2018-09-09T05:53:13.344Z,14.90
2018-09-09T05:55:42.581Z,14.40
2018-09-09T05:58:11.823Z,14.90
2018-09-09T06:00:41.034Z,14.70
2018-09-09T06:05:39.249Z,14.90
2018-09-09T06:13:12.981Z,15.10
2018-09-09T06:18:11.189Z,15.00
2018-09-09T06:25:38.782Z,15.50
2018-09-09T06:28:08.284Z,15.00
2018-09-09T06:30:37.561Z,15.20
2018-09-09T06:33:06.913Z,15.10
2018-09-09T06:38:05.267Z,15.20
2018-09-09T06:40:34.559Z,15.70
2018-09-09T06:43:03.743Z,15.70
2018-09-09T06:45:33.013Z,15.70
2018-09-09T06:48:02.237Z,16.10
2018-09-09T06:50:31.509Z,16.10
2018-09-09T06:55:30.155Z,16.20
2018-09-09T07:00:29.343Z,16.20
2018-09-09T07:03:04.818Z,16.20
2018-09-09T07:05:34.085Z,16.30
2018-09-09T07:08:03.360Z,16.50
2018-09-09T07:10:32.643Z,16.70
2018-09-09T07:13:01.911Z,17.20
2018-09-09T07:15:31.182Z,16.90
2018-09-09T07:25:27.481Z,17.30
2018-09-09T07:27:56.736Z,16.90
2018-09-09T07:30:26.115Z,17.00
2018-09-09T07:32:55.359Z,16.80
2018-09-09T07:35:24.582Z,16.90
2018-09-09T07:40:23.088Z,17.10
2018-09-09T07:42:52.359Z,17.10
2018-09-09T07:45:21.590Z,17.60
2018-09-09T07:47:50.796Z,17.10
2018-09-09T07:50:20.240Z,17.80
2018-09-09T07:52:49.484Z,17.40
2018-09-09T07:55:18.702Z,17.30
2018-09-09T08:00:16.953Z,17.50
2018-09-09T08:05:15.250Z,17.70
2018-09-09T08:07:44.541Z,17.50
2018-09-09T08:17:41.118Z,18.10
2018-09-09T08:25:08.329Z,17.90
2018-09-09T08:27:37.582Z,18.00
2018-09-09T08:32:59.038Z,18.40
2018-09-09T08:35:28.448Z,18.20
2018-09-09T08:37:57.743Z,18.40
2018-09-09T08:40:27.117Z,18.90
2018-09-09T08:42:56.373Z,18.60
2018-09-09T08:45:25.822Z,18.70
2018-09-09T08:47:55.650Z,18.60
2018-09-09T08:50:24.896Z,18.50
2018-09-09T08:52:54.083Z,18.30
2018-09-09T08:57:52.411Z,18.30
2018-09-09T09:07:48.808Z,18.60
2018-09-09T09:12:47.088Z,19.40
2018-09-09T09:15:16.352Z,18.40
2018-09-09T09:17:45.656Z,18.60
2018-09-09T09:20:14.935Z,18.90
2018-09-09T09:22:44.152Z,19.00
2018-09-09T09:25:13.348Z,19.00
2018-09-09T09:27:42.544Z,19.20
2018-09-09T09:30:11.763Z,19.40
2018-09-09T09:37:43.713Z,20.20
2018-09-09T09:40:13.016Z,20.20
2018-09-09T09:42:42.348Z,20.40
2018-09-09T09:45:11.650Z,20.00
2018-09-09T09:50:09.885Z,20.70
2018-09-09T09:52:39.136Z,20.80
2018-09-09T09:55:08.834Z,21.00
2018-09-09T09:57:37.971Z,20.80
2018-09-09T10:05:06.119Z,21.10
2018-09-09T10:07:36.175Z,21.20
2018-09-09T10:10:05.453Z,21.50
2018-09-09T10:12:35.042Z,21.30
2018-09-09T10:15:04.335Z,21.90
2018-09-09T10:17:33.609Z,21.60
2018-09-09T10:20:02.933Z,21.40
2018-09-09T10:22:32.152Z,21.70
2018-09-09T10:25:01.401Z,21.40
2018-09-09T10:29:59.676Z,21.30
2018-09-09T10:32:29.456Z,21.70
2018-09-09T10:34:58.924Z,21.00
2018-09-09T10:39:57.978Z,20.90
2018-09-09T10:42:27.186Z,20.70
2018-09-09T10:47:25.385Z,20.50
2018-09-09T10:49:54.602Z,20.60
2018-09-09T10:57:21.972Z,20.50
2018-09-09T10:59:51.200Z,20.50
2018-09-09T11:02:20.492Z,20.40
2018-09-09T11:04:49.794Z,20.30
2018-09-09T11:12:17.550Z,20.30
2018-09-09T11:14:46.766Z,20.60
2018-09-09T11:17:16.034Z,20.40
2018-09-09T11:19:45.371Z,20.50
2018-09-09T11:22:14.559Z,20.50
2018-09-09T11:24:43.767Z,20.40
2018-09-09T11:29:41.931Z,20.60
2018-09-09T11:32:11.256Z,20.70
2018-09-09T11:34:40.583Z,20.80
2018-09-09T11:37:09.939Z,20.80
2018-09-09T11:39:39.329Z,20.80
2018-09-09T11:42:08.338Z,20.70
2018-09-09T11:47:07.626Z,20.90
2018-09-09T11:49:36.972Z,20.80
2018-09-09T11:52:06.258Z,21.00
2018-09-09T11:54:35.520Z,20.90
2018-09-09T11:57:05.636Z,20.90
2018-09-09T12:02:04.193Z,21.20
2018-09-09T12:04:33.482Z,21.10
2018-09-09T12:07:02.794Z,21.30
2018-09-09T12:12:01.160Z,21.50
2018-09-09T12:17:21.428Z,21.80
2018-09-09T12:19:50.716Z,21.50
2018-09-09T12:24:48.860Z,21.50
2018-09-09T12:27:18.138Z,21.40
2018-09-09T12:37:14.439Z,21.60
2018-09-09T12:42:12.823Z,22.00
2018-09-09T12:44:47.538Z,21.80
2018-09-09T12:47:22.013Z,22.00
2018-09-09T12:49:51.237Z,22.20
2018-09-09T12:52:20.429Z,22.60
2018-09-09T12:54:49.663Z,22.80
2018-09-09T12:57:18.904Z,22.90
2018-09-09T13:02:17.256Z,22.40
2018-09-09T13:09:47.941Z,23.20
2018-09-09T13:12:17.187Z,22.70
2018-09-09T13:14:46.921Z,22.70
2018-09-09T13:17:16.438Z,22.80
2018-09-09T13:19:46.278Z,22.80
2018-09-09T13:22:15.844Z,23.00
2018-09-09T13:24:45.267Z,23.20
2018-09-09T13:27:14.670Z,22.80
2018-09-09T13:29:43.962Z,23.10
2018-09-09T13:32:13.217Z,22.90
2018-09-09T13:39:40.758Z,23.10
2018-09-09T13:42:09.972Z,22.90
2018-09-09T13:49:38.440Z,22.60
2018-09-09T13:54:37.002Z,21.80
2018-09-09T13:57:12.987Z,22.40
2018-09-09T13:59:42.161Z,22.30
2018-09-09T14:02:11.497Z,22.40
2018-09-09T14:04:40.709Z,22.30
2018-09-09T14:07:09.961Z,22.30
2018-09-09T14:09:39.223Z,22.30
2018-09-09T14:12:08.449Z,22.40
2018-09-09T14:14:37.653Z,22.20
2018-09-09T14:19:36.059Z,22.00
2018-09-09T14:22:05.461Z,22.10
2018-09-09T14:27:03.685Z,21.70
2018-09-09T14:29:32.913Z,21.70
2018-09-09T14:32:02.355Z,21.70
2018-09-09T14:37:00.717Z,21.70
2018-09-09T14:41:59.024Z,21.50
2018-09-09T14:46:57.307Z,21.70
2018-09-09T14:51:55.552Z,21.80
2018-09-09T15:01:52.013Z,21.80
2018-09-09T15:04:21.298Z,21.80
2018-09-09T15:06:50.562Z,21.90
2018-09-09T15:11:48.945Z,21.90
2018-09-09T15:14:18.386Z,21.80
2018-09-09T15:16:47.722Z,21.70
2018-09-09T15:19:17.042Z,21.80
2018-09-09T15:24:15.398Z,21.40
2018-09-09T15:26:44.698Z,21.80
2018-09-09T15:29:13.940Z,21.80
2018-09-09T15:31:43.153Z,21.80
2018-09-09T15:34:12.420Z,21.90
2018-09-09T15:36:41.741Z,22.30
2018-09-09T15:39:10.962Z,21.80
2018-09-09T15:44:09.297Z,21.80
2018-09-09T15:46:38.534Z,21.90
2018-09-09T15:49:07.761Z,21.80
2018-09-09T15:51:37.061Z,21.90
2018-09-09T15:54:06.361Z,21.70
2018-09-09T15:59:04.623Z,21.70
2018-09-09T16:01:33.866Z,21.50
2018-09-09T16:04:03.132Z,21.10
2018-09-09T16:06:32.380Z,21.80
2018-09-09T16:11:30.620Z,21.40
2018-09-09T16:16:29.752Z,21.50
2018-09-09T16:18:59.020Z,21.60
2018-09-09T16:21:28.446Z,21.70
2018-09-09T16:23:57.871Z,21.60
2018-09-09T16:26:27.184Z,21.40
2018-09-09T16:28:56.403Z,21.60
2018-09-09T16:31:25.743Z,21.40
2018-09-09T16:38:52.966Z,21.40
2018-09-09T16:41:22.181Z,21.20
2018-09-09T16:43:51.483Z,21.70
2018-09-09T16:46:20.747Z,21.30
2018-09-09T16:48:50.177Z,21.20
2018-09-09T16:51:19.449Z,21.30
2018-09-09T16:56:17.708Z,20.70
2018-09-09T17:03:44.974Z,21.00
2018-09-09T17:08:43.181Z,20.90
2018-09-09T17:11:12.442Z,21.00
2018-09-09T17:16:10.704Z,20.90
2018-09-09T17:21:09.062Z,20.80
2018-09-09T17:28:36.407Z,20.30
2018-09-09T17:31:05.662Z,20.20
2018-09-09T17:33:34.894Z,20.90
2018-09-09T17:36:04.099Z,20.30
2018-09-09T17:38:33.578Z,20.60
2018-09-09T17:41:02.791Z,20.30
2018-09-09T17:43:32.040Z,19.90
2018-09-09T17:46:01.277Z,20.00
2018-09-09T17:48:30.545Z,20.10
2018-09-09T17:50:59.850Z,20.20
2018-09-09T17:53:29.233Z,20.10
2018-09-09T17:55:59.421Z,19.60
2018-09-09T18:00:57.758Z,20.00
2018-09-09T18:03:29.439Z,19.60
2018-09-09T18:05:58.666Z,19.50
2018-09-09T18:08:28.002Z,19.80
2018-09-09T18:10:57.321Z,19.40
2018-09-09T18:13:26.524Z,19.80
2018-09-09T18:15:55.809Z,19.30
2018-09-09T18:18:25.131Z,19.70
2018-09-09T18:20:54.460Z,19.50
2018-09-09T18:23:23.550Z,20.10
2018-09-09T18:28:21.787Z,19.10
2018-09-09T18:30:51.005Z,19.00
2018-09-09T18:33:20.267Z,19.00
2018-09-09T18:35:49.571Z,19.20
2018-09-09T18:38:18.768Z,18.90
2018-09-09T18:43:17.021Z,19.40
2018-09-09T18:45:46.249Z,19.80
2018-09-09T18:48:15.503Z,19.20
2018-09-09T18:55:42.810Z,18.70
2018-09-09T18:58:12.074Z,19.30
2018-09-09T19:00:41.370Z,18.90
2018-09-09T19:03:10.599Z,19.20
2018-09-09T19:05:39.867Z,19.10
2018-09-09T19:10:38.237Z,18.60
2018-09-09T19:13:07.526Z,19.20
2018-09-09T19:20:35.020Z,18.60
2018-09-09T19:23:04.249Z,19.00
2018-09-09T19:25:33.848Z,19.40
2018-09-09T19:28:03.112Z,18.90
2018-09-09T19:35:30.430Z,18.00
2018-09-09T19:40:28.664Z,18.30
2018-09-09T19:47:55.988Z,18.00
2018-09-09T19:50:25.248Z,18.20
2018-09-09T19:57:52.518Z,18.10
2018-09-09T20:02:50.654Z,17.80
2018-09-09T20:10:17.975Z,17.20
2018-09-09T20:15:16.227Z,16.90
2018-09-09T20:17:45.469Z,17.00
2018-09-09T20:20:14.723Z,17.60
2018-09-09T20:25:12.896Z,17.20
2018-09-09T20:27:42.106Z,17.70
2018-09-09T20:30:11.338Z,17.20
2018-09-09T20:32:40.616Z,17.30
2018-09-09T20:40:14.398Z,16.80
2018-09-09T20:42:43.572Z,17.20
2018-09-09T20:45:12.788Z,17.30
2018-09-09T20:47:42.012Z,16.60
2018-09-09T20:50:11.265Z,16.60
2018-09-09T20:52:40.509Z,16.50
2018-09-09T20:55:09.759Z,17.30
2018-09-09T21:07:34.984Z,16.40
2018-09-09T21:12:33.323Z,16.30
2018-09-09T21:15:06.644Z,16.50
2018-09-09T21:22:34.541Z,16.60
2018-09-09T21:25:03.790Z,16.00
2018-09-09T21:27:33.045Z,16.50
2018-09-09T21:30:02.267Z,15.80
2018-09-09T21:32:31.555Z,15.70
2018-09-09T21:35:00.813Z,16.10
2018-09-09T21:39:59.709Z,16.20
2018-09-09T21:47:27.008Z,16.90
2018-09-09T21:49:56.275Z,15.70
2018-09-09T21:52:25.490Z,15.80
2018-09-09T21:54:54.708Z,16.00
2018-09-09T21:57:23.916Z,15.90
2018-09-09T22:04:51.163Z,16.20
2018-09-09T22:07:20.362Z,15.50
2018-09-09T22:14:47.614Z,16.00
2018-09-09T22:17:16.854Z,15.80
2018-09-09T22:19:46.112Z,16.00
2018-09-09T22:22:15.367Z,15.90
2018-09-09T22:24:44.615Z,15.30
2018-09-09T22:27:13.842Z,15.50
2018-09-09T22:29:43.054Z,15.70
2018-09-09T22:32:12.337Z,15.80
2018-09-09T22:34:41.587Z,15.60
2018-09-09T22:39:39.824Z,15.60
2018-09-09T22:47:06.960Z,15.50
2018-09-09T22:59:32.503Z,15.20
2018-09-09T23:02:01.714Z,15.20
2018-09-09T23:06:59.952Z,15.30
2018-09-09T23:09:29.226Z,15.20
2018-09-09T23:21:54.455Z,15.10
2018-09-09T23:24:23.717Z,15.20
2018-09-09T23:26:52.974Z,15.60
2018-09-09T23:29:22.154Z,15.40
2018-09-09T23:31:51.383Z,15.40
2018-09-09T23:34:20.587Z,15.00
2018-09-09T23:36:49.872Z,15.10
2018-09-09T23:39:19.097Z,15.40
2018-09-09T23:46:46.266Z,15.10
2018-09-09T23:49:15.509Z,15.00
2018-09-09T23:51:44.682Z,15.30
2018-09-09T23:56:42.898Z,14.70
2018-09-09T23:59:12.109Z,15.00
